sensor_id;sensor_type;location;lat;lon;timestamp;pressure;altitude;pressure_sealevel;temperature
80581;BMP180;1474;51.460;7.150;2023-05-10T00:00:15;99725.00;;;12.80
80581;BMP180;1474;51.460;7.150;2023-05-10T00:02:41;99717.00;;;12.80
80581;BMP180;1474;51.460;7.150;2023-05-10T00:05:07;99719.00;;;12.90
80581;BMP180;1474;51.460;7.150;2023-05-10T00:07:33;99725.00;;;12.80
80581;BMP180;1474;51.460;7.150;2023-05-10T00:09:58;99718.00;;;12.80
80581;BMP180;1474;51.460;7.150;2023-05-10T00:12:24;99722.00;;;12.80
80581;BMP180;1474;51.460;7.150;2023-05-10T00:14:50;99726.00;;;12.80
80581;BMP180;1474;51.460;7.150;2023-05-10T00:17:16;99718.00;;;12.80
80581;BMP180;1474;51.460;7.150;2023-05-10T00:19:41;99723.00;;;12.80
80581;BMP180;1474;51.460;7.150;2023-05-10T00:22:07;99713.00;;;12.80
80581;BMP180;1474;51.460;7.150;2023-05-10T00:24:33;99717.00;;;12.80
80581;BMP180;1474;51.460;7.150;2023-05-10T00:26:58;99717.00;;;12.80
80581;BMP180;1474;51.460;7.150;2023-05-10T00:29:24;99726.00;;;12.80
80581;BMP180;1474;51.460;7.150;2023-05-10T00:31:50;99718.00;;;12.80
80581;BMP180;1474;51.460;7.150;2023-05-10T00:34:15;99720.00;;;12.80
80581;BMP180;1474;51.460;7.150;2023-05-10T00:36:41;99709.00;;;12.80
80581;BMP180;1474;51.460;7.150;2023-05-10T00:39:07;99717.00;;;12.70
80581;BMP180;1474;51.460;7.150;2023-05-10T00:41:33;99707.00;;;12.80
80581;BMP180;1474;51.460;7.150;2023-05-10T00:43:59;99714.00;;;12.80
80581;BMP180;1474;51.460;7.150;2023-05-10T00:46:25;99714.00;;;12.80
80581;BMP180;1474;51.460;7.150;2023-05-10T00:48:52;99711.00;;;12.80
80581;BMP180;1474;51.460;7.150;2023-05-10T00:51:18;99711.00;;;12.80
80581;BMP180;1474;51.460;7.150;2023-05-10T00:53:45;99714.00;;;12.80
80581;BMP180;1474;51.460;7.150;2023-05-10T00:56:12;99719.00;;;12.70
80581;BMP180;1474;51.460;7.150;2023-05-10T00:58:39;99705.00;;;12.80
80581;BMP180;1474;51.460;7.150;2023-05-10T01:01:06;99709.00;;;12.80
80581;BMP180;1474;51.460;7.150;2023-05-10T01:03:32;99711.00;;;12.80
80581;BMP180;1474;51.460;7.150;2023-05-10T01:05:58;99712.00;;;12.70
80581;BMP180;1474;51.460;7.150;2023-05-10T01:08:26;99720.00;;;12.70
80581;BMP180;1474;51.460;7.150;2023-05-10T01:10:52;99718.00;;;12.70
80581;BMP180;1474;51.460;7.150;2023-05-10T01:13:33;99719.00;;;12.70
80581;BMP180;1474;51.460;7.150;2023-05-10T01:16:00;99722.00;;;12.70
80581;BMP180;1474;51.460;7.150;2023-05-10T01:18:30;99719.00;;;12.50
80581;BMP180;1474;51.460;7.150;2023-05-10T01:35:07;99739.00;;;12.40
80581;BMP180;1474;51.460;7.150;2023-05-10T01:38:29;99743.00;;;12.40
80581;BMP180;1474;51.460;7.150;2023-05-10T01:41:16;99744.00;;;12.40
80581;BMP180;1474;51.460;7.150;2023-05-10T01:43:52;99742.00;;;12.30
80581;BMP180;1474;51.460;7.150;2023-05-10T01:46:37;99742.00;;;12.40
80581;BMP180;1474;51.460;7.150;2023-05-10T01:49:13;99743.00;;;12.40
80581;BMP180;1474;51.460;7.150;2023-05-10T01:51:48;99744.00;;;12.20
80581;BMP180;1474;51.460;7.150;2023-05-10T01:54:19;99740.00;;;12.30
80581;BMP180;1474;51.460;7.150;2023-05-10T01:56:56;99748.00;;;12.30
80581;BMP180;1474;51.460;7.150;2023-05-10T01:59:30;99741.00;;;12.30
80581;BMP180;1474;51.460;7.150;2023-05-10T02:02:04;99745.00;;;12.30
80581;BMP180;1474;51.460;7.150;2023-05-10T02:04:31;99738.00;;;12.20
80581;BMP180;1474;51.460;7.150;2023-05-10T02:06:59;99749.00;;;12.30
80581;BMP180;1474;51.460;7.150;2023-05-10T02:09:27;99747.00;;;12.20
80581;BMP180;1474;51.460;7.150;2023-05-10T02:11:58;99755.00;;;12.20
80581;BMP180;1474;51.460;7.150;2023-05-10T02:14:26;99751.00;;;12.10
80581;BMP180;1474;51.460;7.150;2023-05-10T02:16:54;99751.00;;;12.10
80581;BMP180;1474;51.460;7.150;2023-05-10T02:19:23;99763.00;;;12.20
80581;BMP180;1474;51.460;7.150;2023-05-10T02:21:50;99756.00;;;12.20
80581;BMP180;1474;51.460;7.150;2023-05-10T02:24:18;99764.00;;;12.20
80581;BMP180;1474;51.460;7.150;2023-05-10T02:26:47;99757.00;;;12.20
80581;BMP180;1474;51.460;7.150;2023-05-10T02:29:15;99756.00;;;12.20
80581;BMP180;1474;51.460;7.150;2023-05-10T02:31:42;99765.00;;;12.10
80581;BMP180;1474;51.460;7.150;2023-05-10T02:34:11;99760.00;;;12.10
80581;BMP180;1474;51.460;7.150;2023-05-10T02:36:41;99773.00;;;12.00
80581;BMP180;1474;51.460;7.150;2023-05-10T02:39:08;99769.00;;;12.00
80581;BMP180;1474;51.460;7.150;2023-05-10T02:41:39;99767.00;;;12.00
80581;BMP180;1474;51.460;7.150;2023-05-10T02:44:07;99771.00;;;12.00
80581;BMP180;1474;51.460;7.150;2023-05-10T02:46:33;99772.00;;;12.00
80581;BMP180;1474;51.460;7.150;2023-05-10T02:49:00;99766.00;;;12.10
80581;BMP180;1474;51.460;7.150;2023-05-10T02:51:31;99764.00;;;12.00
80581;BMP180;1474;51.460;7.150;2023-05-10T02:54:04;99770.00;;;11.90
80581;BMP180;1474;51.460;7.150;2023-05-10T02:56:35;99771.00;;;11.90
80581;BMP180;1474;51.460;7.150;2023-05-10T02:59:02;99764.00;;;11.90
80581;BMP180;1474;51.460;7.150;2023-05-10T03:01:29;99759.00;;;11.90
80581;BMP180;1474;51.460;7.150;2023-05-10T03:03:54;99766.00;;;11.90
80581;BMP180;1474;51.460;7.150;2023-05-10T03:06:20;99769.00;;;11.80
80581;BMP180;1474;51.460;7.150;2023-05-10T03:08:46;99765.00;;;11.80
80581;BMP180;1474;51.460;7.150;2023-05-10T03:17:30;99767.00;;;11.90
80581;BMP180;1474;51.460;7.150;2023-05-10T03:20:06;99769.00;;;11.90
80581;BMP180;1474;51.460;7.150;2023-05-10T03:22:50;99775.00;;;11.90
80581;BMP180;1474;51.460;7.150;2023-05-10T03:25:18;99775.00;;;12.00
80581;BMP180;1474;51.460;7.150;2023-05-10T03:27:47;99773.00;;;12.00
80581;BMP180;1474;51.460;7.150;2023-05-10T03:30:13;99776.00;;;12.00
80581;BMP180;1474;51.460;7.150;2023-05-10T03:32:39;99785.00;;;12.00
80581;BMP180;1474;51.460;7.150;2023-05-10T03:35:10;99786.00;;;12.00
80581;BMP180;1474;51.460;7.150;2023-05-10T03:37:37;99778.00;;;11.80
80581;BMP180;1474;51.460;7.150;2023-05-10T03:40:04;99775.00;;;11.90
80581;BMP180;1474;51.460;7.150;2023-05-10T03:42:31;99789.00;;;11.90
80581;BMP180;1474;51.460;7.150;2023-05-10T03:44:56;99786.00;;;11.90
80581;BMP180;1474;51.460;7.150;2023-05-10T03:47:22;99788.00;;;12.00
80581;BMP180;1474;51.460;7.150;2023-05-10T03:49:48;99789.00;;;12.00
80581;BMP180;1474;51.460;7.150;2023-05-10T03:52:14;99794.00;;;11.90
80581;BMP180;1474;51.460;7.150;2023-05-10T03:54:39;99795.00;;;11.90
80581;BMP180;1474;51.460;7.150;2023-05-10T03:57:05;99792.00;;;11.90
80581;BMP180;1474;51.460;7.150;2023-05-10T03:59:31;99792.00;;;11.80
80581;BMP180;1474;51.460;7.150;2023-05-10T04:01:57;99796.00;;;11.90
80581;BMP180;1474;51.460;7.150;2023-05-10T04:04:22;99790.00;;;12.00
80581;BMP180;1474;51.460;7.150;2023-05-10T04:06:49;99796.00;;;11.90
80581;BMP180;1474;51.460;7.150;2023-05-10T04:09:15;99794.00;;;12.00
80581;BMP180;1474;51.460;7.150;2023-05-10T04:11:42;99790.00;;;12.00
80581;BMP180;1474;51.460;7.150;2023-05-10T04:14:08;99786.00;;;11.90
80581;BMP180;1474;51.460;7.150;2023-05-10T04:16:34;99791.00;;;12.00
80581;BMP180;1474;51.460;7.150;2023-05-10T04:19:00;99799.00;;;12.10
80581;BMP180;1474;51.460;7.150;2023-05-10T04:21:26;99800.00;;;12.10
80581;BMP180;1474;51.460;7.150;2023-05-10T04:23:51;99802.00;;;12.10
80581;BMP180;1474;51.460;7.150;2023-05-10T04:26:17;99813.00;;;12.00
80581;BMP180;1474;51.460;7.150;2023-05-10T04:28:43;99802.00;;;12.10
80581;BMP180;1474;51.460;7.150;2023-05-10T04:31:09;99798.00;;;12.10
80581;BMP180;1474;51.460;7.150;2023-05-10T04:33:36;99800.00;;;12.10
80581;BMP180;1474;51.460;7.150;2023-05-10T04:36:03;99800.00;;;12.10
80581;BMP180;1474;51.460;7.150;2023-05-10T04:38:29;99807.00;;;12.10
80581;BMP180;1474;51.460;7.150;2023-05-10T04:41:07;99811.00;;;12.10
80581;BMP180;1474;51.460;7.150;2023-05-10T04:43:33;99804.00;;;12.10
80581;BMP180;1474;51.460;7.150;2023-05-10T04:45:59;99812.00;;;12.10
80581;BMP180;1474;51.460;7.150;2023-05-10T04:48:25;99805.00;;;12.10
80581;BMP180;1474;51.460;7.150;2023-05-10T04:50:51;99805.00;;;12.10
80581;BMP180;1474;51.460;7.150;2023-05-10T04:53:17;99810.00;;;12.20
80581;BMP180;1474;51.460;7.150;2023-05-10T04:55:43;99818.00;;;12.10
80581;BMP180;1474;51.460;7.150;2023-05-10T04:58:09;99819.00;;;12.20
80581;BMP180;1474;51.460;7.150;2023-05-10T05:00:34;99822.00;;;12.20
80581;BMP180;1474;51.460;7.150;2023-05-10T05:03:00;99824.00;;;12.20
80581;BMP180;1474;51.460;7.150;2023-05-10T05:05:26;99824.00;;;12.20
80581;BMP180;1474;51.460;7.150;2023-05-10T05:07:52;99819.00;;;12.20
80581;BMP180;1474;51.460;7.150;2023-05-10T05:10:18;99823.00;;;12.30
80581;BMP180;1474;51.460;7.150;2023-05-10T05:12:43;99826.00;;;12.30
80581;BMP180;1474;51.460;7.150;2023-05-10T05:15:10;99834.00;;;12.20
80581;BMP180;1474;51.460;7.150;2023-05-10T05:17:36;99835.00;;;12.30
80581;BMP180;1474;51.460;7.150;2023-05-10T05:20:02;99837.00;;;12.30
80581;BMP180;1474;51.460;7.150;2023-05-10T05:22:28;99836.00;;;12.30
80581;BMP180;1474;51.460;7.150;2023-05-10T05:24:55;99838.00;;;12.40
80581;BMP180;1474;51.460;7.150;2023-05-10T05:27:22;99827.00;;;12.40
80581;BMP180;1474;51.460;7.150;2023-05-10T05:29:54;99844.00;;;12.50
80581;BMP180;1474;51.460;7.150;2023-05-10T05:32:20;99837.00;;;12.40
80581;BMP180;1474;51.460;7.150;2023-05-10T05:34:46;99844.00;;;12.50
80581;BMP180;1474;51.460;7.150;2023-05-10T05:37:17;99844.00;;;12.50
80581;BMP180;1474;51.460;7.150;2023-05-10T05:39:44;99843.00;;;12.50
80581;BMP180;1474;51.460;7.150;2023-05-10T05:42:11;99841.00;;;12.50
80581;BMP180;1474;51.460;7.150;2023-05-10T05:44:37;99839.00;;;12.50
80581;BMP180;1474;51.460;7.150;2023-05-10T05:47:03;99846.00;;;12.50
80581;BMP180;1474;51.460;7.150;2023-05-10T05:49:30;99849.00;;;12.50
80581;BMP180;1474;51.460;7.150;2023-05-10T05:52:01;99851.00;;;12.60
80581;BMP180;1474;51.460;7.150;2023-05-10T05:54:29;99848.00;;;12.60
80581;BMP180;1474;51.460;7.150;2023-05-10T05:56:56;99854.00;;;12.60
80581;BMP180;1474;51.460;7.150;2023-05-10T05:59:22;99862.00;;;12.70
80581;BMP180;1474;51.460;7.150;2023-05-10T06:01:48;99855.00;;;12.70
80581;BMP180;1474;51.460;7.150;2023-05-10T06:04:14;99857.00;;;12.80
80581;BMP180;1474;51.460;7.150;2023-05-10T06:06:40;99864.00;;;12.70
80581;BMP180;1474;51.460;7.150;2023-05-10T06:09:06;99869.00;;;12.80
80581;BMP180;1474;51.460;7.150;2023-05-10T06:11:31;99876.00;;;12.90
80581;BMP180;1474;51.460;7.150;2023-05-10T06:13:58;99871.00;;;12.90
80581;BMP180;1474;51.460;7.150;2023-05-10T06:16:24;99873.00;;;12.90
80581;BMP180;1474;51.460;7.150;2023-05-10T06:18:50;99879.00;;;12.90
80581;BMP180;1474;51.460;7.150;2023-05-10T06:21:16;99881.00;;;12.90
80581;BMP180;1474;51.460;7.150;2023-05-10T06:23:42;99873.00;;;13.10
80581;BMP180;1474;51.460;7.150;2023-05-10T06:26:08;99886.00;;;13.20
80581;BMP180;1474;51.460;7.150;2023-05-10T06:28:33;99884.00;;;13.20
80581;BMP180;1474;51.460;7.150;2023-05-10T06:31:00;99879.00;;;13.40
80581;BMP180;1474;51.460;7.150;2023-05-10T06:33:26;99884.00;;;13.30
80581;BMP180;1474;51.460;7.150;2023-05-10T06:35:52;99887.00;;;13.30
80581;BMP180;1474;51.460;7.150;2023-05-10T06:38:17;99885.00;;;13.30
80581;BMP180;1474;51.460;7.150;2023-05-10T06:40:43;99889.00;;;13.40
80581;BMP180;1474;51.460;7.150;2023-05-10T06:43:10;99886.00;;;13.70
80581;BMP180;1474;51.460;7.150;2023-05-10T06:45:36;99870.00;;;14.10
80581;BMP180;1474;51.460;7.150;2023-05-10T06:48:02;99872.00;;;14.30
80581;BMP180;1474;51.460;7.150;2023-05-10T06:50:28;99883.00;;;14.60
80581;BMP180;1474;51.460;7.150;2023-05-10T06:52:53;99884.00;;;14.50
80581;BMP180;1474;51.460;7.150;2023-05-10T06:55:21;99879.00;;;14.70
80581;BMP180;1474;51.460;7.150;2023-05-10T06:57:47;99880.00;;;14.50
80581;BMP180;1474;51.460;7.150;2023-05-10T07:00:14;99887.00;;;14.30
80581;BMP180;1474;51.460;7.150;2023-05-10T07:02:40;99898.00;;;14.10
80581;BMP180;1474;51.460;7.150;2023-05-10T07:05:06;99903.00;;;14.10
80581;BMP180;1474;51.460;7.150;2023-05-10T07:07:32;99901.00;;;13.90
80581;BMP180;1474;51.460;7.150;2023-05-10T07:09:58;99892.00;;;14.00
80581;BMP180;1474;51.460;7.150;2023-05-10T07:12:24;99906.00;;;14.20
80581;BMP180;1474;51.460;7.150;2023-05-10T07:14:50;99909.00;;;14.30
80581;BMP180;1474;51.460;7.150;2023-05-10T07:17:16;99907.00;;;14.20
80581;BMP180;1474;51.460;7.150;2023-05-10T07:19:42;99900.00;;;14.20
80581;BMP180;1474;51.460;7.150;2023-05-10T07:22:08;99905.00;;;14.20
80581;BMP180;1474;51.460;7.150;2023-05-10T07:24:35;99905.00;;;14.40
80581;BMP180;1474;51.460;7.150;2023-05-10T07:27:01;99894.00;;;14.60
80581;BMP180;1474;51.460;7.150;2023-05-10T07:29:27;99904.00;;;14.70
80581;BMP180;1474;51.460;7.150;2023-05-10T07:31:53;99887.00;;;14.70
80581;BMP180;1474;51.460;7.150;2023-05-10T07:34:19;99892.00;;;15.00
80581;BMP180;1474;51.460;7.150;2023-05-10T07:36:44;99894.00;;;15.70
80581;BMP180;1474;51.460;7.150;2023-05-10T07:39:10;99884.00;;;15.90
80581;BMP180;1474;51.460;7.150;2023-05-10T07:41:36;99899.00;;;15.50
80581;BMP180;1474;51.460;7.150;2023-05-10T07:44:03;99900.00;;;15.60
80581;BMP180;1474;51.460;7.150;2023-05-10T07:46:29;99912.00;;;15.30
80581;BMP180;1474;51.460;7.150;2023-05-10T07:48:55;99905.00;;;15.10
80581;BMP180;1474;51.460;7.150;2023-05-10T07:51:21;99910.00;;;15.30
80581;BMP180;1474;51.460;7.150;2023-05-10T07:53:47;99915.00;;;14.70
80581;BMP180;1474;51.460;7.150;2023-05-10T07:56:25;99919.00;;;14.60
80581;BMP180;1474;51.460;7.150;2023-05-10T07:58:55;99913.00;;;14.60
80581;BMP180;1474;51.460;7.150;2023-05-10T08:01:22;99920.00;;;14.80
80581;BMP180;1474;51.460;7.150;2023-05-10T08:03:48;99923.00;;;15.00
80581;BMP180;1474;51.460;7.150;2023-05-10T08:06:17;99919.00;;;14.90
80581;BMP180;1474;51.460;7.150;2023-05-10T08:08:43;99934.00;;;14.70
80581;BMP180;1474;51.460;7.150;2023-05-10T08:11:18;99933.00;;;14.30
80581;BMP180;1474;51.460;7.150;2023-05-10T08:13:48;99938.00;;;14.30
80581;BMP180;1474;51.460;7.150;2023-05-10T08:16:15;99937.00;;;14.40
80581;BMP180;1474;51.460;7.150;2023-05-10T08:19:52;99939.00;;;14.70
80581;BMP180;1474;51.460;7.150;2023-05-10T08:22:32;99954.00;;;14.50
80581;BMP180;1474;51.460;7.150;2023-05-10T08:25:08;99957.00;;;14.20
80581;BMP180;1474;51.460;7.150;2023-05-10T08:27:53;99954.00;;;14.20
80581;BMP180;1474;51.460;7.150;2023-05-10T08:30:25;99951.00;;;14.20
80581;BMP180;1474;51.460;7.150;2023-05-10T08:32:56;99957.00;;;14.50
80581;BMP180;1474;51.460;7.150;2023-05-10T08:35:26;99964.00;;;14.40
80581;BMP180;1474;51.460;7.150;2023-05-10T09:07:13;99980.00;;;15.00
80581;BMP180;1474;51.460;7.150;2023-05-10T09:09:39;99965.00;;;15.30
80581;BMP180;1474;51.460;7.150;2023-05-10T09:12:15;99971.00;;;15.50
80581;BMP180;1474;51.460;7.150;2023-05-10T09:14:44;99974.00;;;15.60
80581;BMP180;1474;51.460;7.150;2023-05-10T09:17:10;99981.00;;;15.70
80581;BMP180;1474;51.460;7.150;2023-05-10T09:19:36;99998.00;;;15.60
80581;BMP180;1474;51.460;7.150;2023-05-10T09:22:02;99994.00;;;15.30
80581;BMP180;1474;51.460;7.150;2023-05-10T09:24:30;99993.00;;;15.30
80581;BMP180;1474;51.460;7.150;2023-05-10T09:26:57;99995.00;;;15.40
80581;BMP180;1474;51.460;7.150;2023-05-10T09:29:38;99992.00;;;15.40
80581;BMP180;1474;51.460;7.150;2023-05-10T09:32:04;99994.00;;;15.40
80581;BMP180;1474;51.460;7.150;2023-05-10T09:34:32;100002.00;;;15.50
80581;BMP180;1474;51.460;7.150;2023-05-10T09:37:02;99994.00;;;15.50
80581;BMP180;1474;51.460;7.150;2023-05-10T09:39:34;100002.00;;;15.50
80581;BMP180;1474;51.460;7.150;2023-05-10T09:42:08;100007.00;;;15.60
80581;BMP180;1474;51.460;7.150;2023-05-10T09:44:35;99997.00;;;15.60
80581;BMP180;1474;51.460;7.150;2023-05-10T09:47:02;99997.00;;;15.50
80581;BMP180;1474;51.460;7.150;2023-05-10T09:49:28;99996.00;;;15.80
80581;BMP180;1474;51.460;7.150;2023-05-10T09:52:06;99999.00;;;16.10
80581;BMP180;1474;51.460;7.150;2023-05-10T09:54:33;99993.00;;;16.60
80581;BMP180;1474;51.460;7.150;2023-05-10T09:57:00;99988.00;;;16.50
80581;BMP180;1474;51.460;7.150;2023-05-10T09:59:28;99982.00;;;17.20
80581;BMP180;1474;51.460;7.150;2023-05-10T10:01:59;99993.00;;;17.20
80581;BMP180;1474;51.460;7.150;2023-05-10T10:04:25;99994.00;;;16.80
80581;BMP180;1474;51.460;7.150;2023-05-10T10:07:03;100011.00;;;16.90
80581;BMP180;1474;51.460;7.150;2023-05-10T10:09:29;100009.00;;;16.30
80581;BMP180;1474;51.460;7.150;2023-05-10T10:11:55;100012.00;;;16.50
80581;BMP180;1474;51.460;7.150;2023-05-10T10:14:23;100008.00;;;16.40
80581;BMP180;1474;51.460;7.150;2023-05-10T10:16:50;100004.00;;;16.30
80581;BMP180;1474;51.460;7.150;2023-05-10T10:19:19;100006.00;;;16.60
80581;BMP180;1474;51.460;7.150;2023-05-10T10:21:49;99992.00;;;16.70
80581;BMP180;1474;51.460;7.150;2023-05-10T10:24:16;100007.00;;;17.00
80581;BMP180;1474;51.460;7.150;2023-05-10T10:26:42;100011.00;;;16.90
80581;BMP180;1474;51.460;7.150;2023-05-10T10:29:26;100007.00;;;16.70
80581;BMP180;1474;51.460;7.150;2023-05-10T10:35:35;100011.00;;;17.00
80581;BMP180;1474;51.460;7.150;2023-05-10T10:38:01;100013.00;;;17.20
80581;BMP180;1474;51.460;7.150;2023-05-10T10:40:32;100013.00;;;17.40
80581;BMP180;1474;51.460;7.150;2023-05-10T10:43:26;100029.00;;;17.40
80581;BMP180;1474;51.460;7.150;2023-05-10T10:48:39;100049.00;;;16.30
80581;BMP180;1474;51.460;7.150;2023-05-10T10:51:05;100050.00;;;16.00
80581;BMP180;1474;51.460;7.150;2023-05-10T10:53:32;100048.00;;;15.80
80581;BMP180;1474;51.460;7.150;2023-05-10T10:56:12;100039.00;;;15.70
80581;BMP180;1474;51.460;7.150;2023-05-10T10:58:41;100040.00;;;15.90
80581;BMP180;1474;51.460;7.150;2023-05-10T11:01:18;100038.00;;;16.00
80581;BMP180;1474;51.460;7.150;2023-05-10T11:06:35;100046.00;;;16.30
80581;BMP180;1474;51.460;7.150;2023-05-10T11:09:10;100060.00;;;15.90
80581;BMP180;1474;51.460;7.150;2023-05-10T11:11:52;100060.00;;;15.70
80581;BMP180;1474;51.460;7.150;2023-05-10T11:14:21;100060.00;;;15.90
80581;BMP180;1474;51.460;7.150;2023-05-10T11:16:48;100061.00;;;15.70
80581;BMP180;1474;51.460;7.150;2023-05-10T11:19:16;100055.00;;;16.10
80581;BMP180;1474;51.460;7.150;2023-05-10T11:22:13;100049.00;;;16.30
80581;BMP180;1474;51.460;7.150;2023-05-10T11:24:39;100056.00;;;16.30
80581;BMP180;1474;51.460;7.150;2023-05-10T11:27:06;100055.00;;;16.70
80581;BMP180;1474;51.460;7.150;2023-05-10T11:29:32;100054.00;;;17.00
80581;BMP180;1474;51.460;7.150;2023-05-10T11:31:59;100053.00;;;16.90
80581;BMP180;1474;51.460;7.150;2023-05-10T11:34:30;100059.00;;;16.90
80581;BMP180;1474;51.460;7.150;2023-05-10T11:36:57;100073.00;;;16.40
80581;BMP180;1474;51.460;7.150;2023-05-10T11:39:31;100069.00;;;16.40
80581;BMP180;1474;51.460;7.150;2023-05-10T11:41:58;100080.00;;;16.50
80581;BMP180;1474;51.460;7.150;2023-05-10T11:44:30;100075.00;;;16.60
80581;BMP180;1474;51.460;7.150;2023-05-10T11:47:01;100075.00;;;16.40
80581;BMP180;1474;51.460;7.150;2023-05-10T11:49:28;100087.00;;;16.50
80581;BMP180;1474;51.460;7.150;2023-05-10T11:52:05;100078.00;;;16.50
80581;BMP180;1474;51.460;7.150;2023-05-10T11:54:31;100083.00;;;16.40
80581;BMP180;1474;51.460;7.150;2023-05-10T11:56:57;100087.00;;;16.10
80581;BMP180;1474;51.460;7.150;2023-05-10T11:59:24;100093.00;;;16.30
80581;BMP180;1474;51.460;7.150;2023-05-10T12:01:50;100099.00;;;15.80
80581;BMP180;1474;51.460;7.150;2023-05-10T12:04:16;100105.00;;;15.50
80581;BMP180;1474;51.460;7.150;2023-05-10T12:06:42;100100.00;;;15.30
80581;BMP180;1474;51.460;7.150;2023-05-10T12:09:08;100092.00;;;15.60
80581;BMP180;1474;51.460;7.150;2023-05-10T12:11:39;100086.00;;;16.00
80581;BMP180;1474;51.460;7.150;2023-05-10T12:14:08;100078.00;;;16.30
80581;BMP180;1474;51.460;7.150;2023-05-10T12:16:36;100084.00;;;16.50
80581;BMP180;1474;51.460;7.150;2023-05-10T12:19:01;100083.00;;;16.80
80581;BMP180;1474;51.460;7.150;2023-05-10T12:21:29;100081.00;;;17.00
80581;BMP180;1474;51.460;7.150;2023-05-10T12:24:02;100078.00;;;17.00
80581;BMP180;1474;51.460;7.150;2023-05-10T12:26:29;100081.00;;;17.30
80581;BMP180;1474;51.460;7.150;2023-05-10T12:29:14;100077.00;;;17.40
80581;BMP180;1474;51.460;7.150;2023-05-10T12:31:56;100068.00;;;17.60
80581;BMP180;1474;51.460;7.150;2023-05-10T12:34:35;100083.00;;;17.80
80581;BMP180;1474;51.460;7.150;2023-05-10T12:37:03;100074.00;;;17.50
80581;BMP180;1474;51.460;7.150;2023-05-10T12:39:43;100075.00;;;17.60
80581;BMP180;1474;51.460;7.150;2023-05-10T12:42:10;100086.00;;;17.60
80581;BMP180;1474;51.460;7.150;2023-05-10T12:44:40;100081.00;;;17.70
80581;BMP180;1474;51.460;7.150;2023-05-10T12:47:06;100090.00;;;17.40
80581;BMP180;1474;51.460;7.150;2023-05-10T12:49:37;100101.00;;;17.20
80581;BMP180;1474;51.460;7.150;2023-05-10T12:52:03;100113.00;;;17.20
80581;BMP180;1474;51.460;7.150;2023-05-10T12:54:29;100112.00;;;16.80
80581;BMP180;1474;51.460;7.150;2023-05-10T12:56:55;100111.00;;;16.70
80581;BMP180;1474;51.460;7.150;2023-05-10T12:59:21;100094.00;;;17.10
80581;BMP180;1474;51.460;7.150;2023-05-10T13:01:48;100101.00;;;17.30
80581;BMP180;1474;51.460;7.150;2023-05-10T13:04:14;100105.00;;;17.40
80581;BMP180;1474;51.460;7.150;2023-05-10T13:06:40;100107.00;;;17.50
80581;BMP180;1474;51.460;7.150;2023-05-10T13:09:05;100097.00;;;17.30
80581;BMP180;1474;51.460;7.150;2023-05-10T13:11:31;100099.00;;;17.50
80581;BMP180;1474;51.460;7.150;2023-05-10T13:13:57;100105.00;;;17.70
80581;BMP180;1474;51.460;7.150;2023-05-10T13:16:23;100103.00;;;17.80
80581;BMP180;1474;51.460;7.150;2023-05-10T13:18:49;100098.00;;;17.80
80581;BMP180;1474;51.460;7.150;2023-05-10T13:21:14;100098.00;;;17.80
80581;BMP180;1474;51.460;7.150;2023-05-10T13:23:40;100096.00;;;17.70
80581;BMP180;1474;51.460;7.150;2023-05-10T13:26:06;100101.00;;;17.30
80581;BMP180;1474;51.460;7.150;2023-05-10T13:28:32;100100.00;;;17.70
80581;BMP180;1474;51.460;7.150;2023-05-10T13:30:57;100101.00;;;17.60
80581;BMP180;1474;51.460;7.150;2023-05-10T13:33:25;100096.00;;;17.70
80581;BMP180;1474;51.460;7.150;2023-05-10T13:35:51;100097.00;;;17.90
80581;BMP180;1474;51.460;7.150;2023-05-10T13:38:16;100091.00;;;17.80
80581;BMP180;1474;51.460;7.150;2023-05-10T13:40:42;100098.00;;;18.10
80581;BMP180;1474;51.460;7.150;2023-05-10T13:43:08;100097.00;;;18.10
80581;BMP180;1474;51.460;7.150;2023-05-10T13:45:34;100096.00;;;18.30
80581;BMP180;1474;51.460;7.150;2023-05-10T13:47:59;100103.00;;;18.60
80581;BMP180;1474;51.460;7.150;2023-05-10T13:50:25;100095.00;;;18.10
80581;BMP180;1474;51.460;7.150;2023-05-10T13:52:51;100104.00;;;18.40
80581;BMP180;1474;51.460;7.150;2023-05-10T13:55:17;100099.00;;;18.50
80581;BMP180;1474;51.460;7.150;2023-05-10T13:57:42;100094.00;;;18.60
80581;BMP180;1474;51.460;7.150;2023-05-10T14:00:09;100102.00;;;18.70
80581;BMP180;1474;51.460;7.150;2023-05-10T14:02:35;100086.00;;;18.90
80581;BMP180;1474;51.460;7.150;2023-05-10T14:05:01;100101.00;;;18.60
80581;BMP180;1474;51.460;7.150;2023-05-10T14:07:26;100101.00;;;18.10
80581;BMP180;1474;51.460;7.150;2023-05-10T14:09:52;100104.00;;;18.30
80581;BMP180;1474;51.460;7.150;2023-05-10T14:12:18;100099.00;;;18.10
80581;BMP180;1474;51.460;7.150;2023-05-10T14:14:43;100097.00;;;18.00
80581;BMP180;1474;51.460;7.150;2023-05-10T14:17:09;100076.00;;;17.60
80581;BMP180;1474;51.460;7.150;2023-05-10T14:19:35;100086.00;;;19.20
80581;BMP180;1474;51.460;7.150;2023-05-10T14:22:01;100055.00;;;19.60
80581;BMP180;1474;51.460;7.150;2023-05-10T14:24:27;100060.00;;;20.00
80581;BMP180;1474;51.460;7.150;2023-05-10T14:26:52;100065.00;;;19.40
80581;BMP180;1474;51.460;7.150;2023-05-10T14:29:21;100065.00;;;19.50
80581;BMP180;1474;51.460;7.150;2023-05-10T14:31:47;100061.00;;;20.10
80581;BMP180;1474;51.460;7.150;2023-05-10T14:34:13;100096.00;;;19.70
80581;BMP180;1474;51.460;7.150;2023-05-10T14:36:39;100084.00;;;18.30
80581;BMP180;1474;51.460;7.150;2023-05-10T14:39:05;100095.00;;;18.30
80581;BMP180;1474;51.460;7.150;2023-05-10T14:41:32;100084.00;;;19.00
80581;BMP180;1474;51.460;7.150;2023-05-10T14:43:58;100091.00;;;18.60
80581;BMP180;1474;51.460;7.150;2023-05-10T14:46:24;100084.00;;;19.30
80581;BMP180;1474;51.460;7.150;2023-05-10T14:48:49;100056.00;;;19.10
80581;BMP180;1474;51.460;7.150;2023-05-10T14:51:15;100080.00;;;19.50
80581;BMP180;1474;51.460;7.150;2023-05-10T14:53:41;100097.00;;;19.10
80581;BMP180;1474;51.460;7.150;2023-05-10T14:56:07;100096.00;;;18.60
80581;BMP180;1474;51.460;7.150;2023-05-10T14:58:32;100102.00;;;18.30
80581;BMP180;1474;51.460;7.150;2023-05-10T15:00:58;100099.00;;;18.00
80581;BMP180;1474;51.460;7.150;2023-05-10T15:03:24;100087.00;;;18.70
80581;BMP180;1474;51.460;7.150;2023-05-10T15:05:50;100097.00;;;18.50
80581;BMP180;1474;51.460;7.150;2023-05-10T15:08:16;100092.00;;;18.50
80581;BMP180;1474;51.460;7.150;2023-05-10T15:10:42;100098.00;;;18.20
80581;BMP180;1474;51.460;7.150;2023-05-10T15:13:08;100087.00;;;18.30
80581;BMP180;1474;51.460;7.150;2023-05-10T15:15:34;100093.00;;;18.40
80581;BMP180;1474;51.460;7.150;2023-05-10T15:17:59;100093.00;;;18.10
80581;BMP180;1474;51.460;7.150;2023-05-10T15:20:25;100064.00;;;18.50